sensor_id;sensor_type;location;lat;lon;timestamp;temperature;humidity
23305;DHT22;11821;51.456;8.844;2023-06-04T07:16:49;14.30;98.10
23305;DHT22;11821;51.456;8.844;2023-06-04T07:19:16;19.80;93.00
23305;DHT22;11821;51.456;8.844;2023-06-04T07:21:42;20.00;92.80
23305;DHT22;11821;51.456;8.844;2023-06-04T07:24:09;20.20;93.20
23305;DHT22;11821;51.456;8.844;2023-06-04T07:26:35;20.40;93.10
23305;DHT22;11821;51.456;8.844;2023-06-04T07:31:29;20.70;92.50
23305;DHT22;11821;51.456;8.844;2023-06-04T07:46:09;21.20;92.30
23305;DHT22;11821;51.456;8.844;2023-06-04T07:48:36;22.20;89.90
23305;DHT22;11821;51.456;8.844;2023-06-04T07:51:03;22.40;89.20
23305;DHT22;11821;51.456;8.844;2023-06-04T07:53:32;22.70;88.40
23305;DHT22;11821;51.456;8.844;2023-06-04T07:55:58;23.10;88.00
23305;DHT22;11821;51.456;8.844;2023-06-04T07:58:25;23.30;87.00
23305;DHT22;11821;51.456;8.844;2023-06-04T08:03:18;23.50;86.70
23305;DHT22;11821;51.456;8.844;2023-06-04T08:05:46;23.90;87.00
23305;DHT22;11821;51.456;8.844;2023-06-04T08:08:12;24.00;87.20
23305;DHT22;11821;51.456;8.844;2023-06-04T08:10:41;24.10;83.80
23305;DHT22;11821;51.456;8.844;2023-06-04T08:13:08;24.30;86.70
23305;DHT22;11821;51.456;8.844;2023-06-04T08:15:35;24.50;84.00
23305;DHT22;11821;51.456;8.844;2023-06-04T08:18:02;24.50;84.10
23305;DHT22;11821;51.456;8.844;2023-06-04T08:20:28;24.50;82.10
23305;DHT22;11821;51.456;8.844;2023-06-04T08:22:57;24.70;83.00
23305;DHT22;11821;51.456;8.844;2023-06-04T08:25:23;25.10;82.00
23305;DHT22;11821;51.456;8.844;2023-06-04T08:27:49;25.20;80.70
23305;DHT22;11821;51.456;8.844;2023-06-04T08:30:16;25.30;81.50
23305;DHT22;11821;51.456;8.844;2023-06-04T08:32:43;25.50;80.70
23305;DHT22;11821;51.456;8.844;2023-06-04T08:35:09;25.60;81.00
23305;DHT22;11821;51.456;8.844;2023-06-04T08:37:36;25.50;78.60
23305;DHT22;11821;51.456;8.844;2023-06-04T08:40:02;25.00;74.60
23305;DHT22;11821;51.456;8.844;2023-06-04T08:42:38;24.90;78.00
23305;DHT22;11821;51.456;8.844;2023-06-04T08:45:05;24.50;79.20
23305;DHT22;11821;51.456;8.844;2023-06-04T08:47:35;24.30;76.10
23305;DHT22;11821;51.456;8.844;2023-06-04T08:50:02;24.80;77.70
23305;DHT22;11821;51.456;8.844;2023-06-04T08:52:32;25.10;76.60
23305;DHT22;11821;51.456;8.844;2023-06-04T08:54:59;25.30;77.50
23305;DHT22;11821;51.456;8.844;2023-06-04T08:57:28;25.30;74.80
23305;DHT22;11821;51.456;8.844;2023-06-04T08:59:56;25.00;77.30
23305;DHT22;11821;51.456;8.844;2023-06-04T09:02:23;25.50;78.10
23305;DHT22;11821;51.456;8.844;2023-06-04T09:04:53;25.80;79.30
23305;DHT22;11821;51.456;8.844;2023-06-04T09:07:20;26.30;76.70
23305;DHT22;11821;51.456;8.844;2023-06-04T09:09:47;26.40;72.20
23305;DHT22;11821;51.456;8.844;2023-06-04T09:12:23;26.50;74.30
23305;DHT22;11821;51.456;8.844;2023-06-04T09:14:49;26.90;72.00
23305;DHT22;11821;51.456;8.844;2023-06-04T09:17:25;26.70;72.50
23305;DHT22;11821;51.456;8.844;2023-06-04T09:19:51;27.00;73.00
23305;DHT22;11821;51.456;8.844;2023-06-04T09:22:17;27.00;73.70
23305;DHT22;11821;51.456;8.844;2023-06-04T09:24:46;27.10;73.20
23305;DHT22;11821;51.456;8.844;2023-06-04T09:27:20;26.90;72.10
23305;DHT22;11821;51.456;8.844;2023-06-04T09:29:50;27.00;73.20
23305;DHT22;11821;51.456;8.844;2023-06-04T09:32:27;26.60;69.10
23305;DHT22;11821;51.456;8.844;2023-06-04T09:35:10;26.80;73.60
23305;DHT22;11821;51.456;8.844;2023-06-04T09:37:38;26.80;71.90
23305;DHT22;11821;51.456;8.844;2023-06-04T09:40:06;26.50;68.60
23305;DHT22;11821;51.456;8.844;2023-06-04T09:42:43;26.50;69.40
23305;DHT22;11821;51.456;8.844;2023-06-04T09:45:11;27.00;70.90
23305;DHT22;11821;51.456;8.844;2023-06-04T09:47:44;27.00;71.30
23305;DHT22;11821;51.456;8.844;2023-06-04T09:50:11;27.40;71.30
23305;DHT22;11821;51.456;8.844;2023-06-04T09:52:38;27.60;67.90
23305;DHT22;11821;51.456;8.844;2023-06-04T09:55:18;28.00;70.40
23305;DHT22;11821;51.456;8.844;2023-06-04T09:57:50;27.40;69.90
23305;DHT22;11821;51.456;8.844;2023-06-04T10:00:20;27.30;67.40
23305;DHT22;11821;51.456;8.844;2023-06-04T10:02:47;27.10;69.00
23305;DHT22;11821;51.456;8.844;2023-06-04T10:05:17;27.40;72.10
23305;DHT22;11821;51.456;8.844;2023-06-04T10:07:51;26.90;67.90
23305;DHT22;11821;51.456;8.844;2023-06-04T10:10:20;26.50;68.00
23305;DHT22;11821;51.456;8.844;2023-06-04T10:12:56;26.40;69.90
23305;DHT22;11821;51.456;8.844;2023-06-04T10:15:27;27.00;71.90
23305;DHT22;11821;51.456;8.844;2023-06-04T10:17:54;26.80;68.80
23305;DHT22;11821;51.456;8.844;2023-06-04T10:20:21;27.00;71.20
23305;DHT22;11821;51.456;8.844;2023-06-04T10:22:49;27.10;70.10
23305;DHT22;11821;51.456;8.844;2023-06-04T10:25:16;27.30;69.80
23305;DHT22;11821;51.456;8.844;2023-06-04T10:27:43;27.90;72.60
23305;DHT22;11821;51.456;8.844;2023-06-04T10:30:10;28.20;71.20
23305;DHT22;11821;51.456;8.844;2023-06-04T10:32:37;28.40;70.80
23305;DHT22;11821;51.456;8.844;2023-06-04T10:35:05;28.50;69.90
23305;DHT22;11821;51.456;8.844;2023-06-04T10:37:34;28.40;67.40
23305;DHT22;11821;51.456;8.844;2023-06-04T10:40:00;28.30;70.50
23305;DHT22;11821;51.456;8.844;2023-06-04T10:42:42;28.50;69.70
23305;DHT22;11821;51.456;8.844;2023-06-04T10:45:10;27.80;67.90
23305;DHT22;11821;51.456;8.844;2023-06-04T10:47:37;27.80;67.60
23305;DHT22;11821;51.456;8.844;2023-06-04T10:50:11;28.00;71.70
23305;DHT22;11821;51.456;8.844;2023-06-04T10:52:49;28.40;73.00
23305;DHT22;11821;51.456;8.844;2023-06-04T10:55:19;28.80;70.70
23305;DHT22;11821;51.456;8.844;2023-06-04T10:57:56;28.70;67.10
23305;DHT22;11821;51.456;8.844;2023-06-04T11:00:34;28.90;72.00
23305;DHT22;11821;51.456;8.844;2023-06-04T11:03:02;29.00;68.20
23305;DHT22;11821;51.456;8.844;2023-06-04T11:08:09;29.10;69.00
23305;DHT22;11821;51.456;8.844;2023-06-04T11:10:43;29.50;69.20
23305;DHT22;11821;51.456;8.844;2023-06-04T11:13:12;29.00;67.50
23305;DHT22;11821;51.456;8.844;2023-06-04T11:15:46;28.90;68.40
23305;DHT22;11821;51.456;8.844;2023-06-04T11:18:16;28.60;69.30
23305;DHT22;11821;51.456;8.844;2023-06-04T11:20:59;28.30;66.70
23305;DHT22;11821;51.456;8.844;2023-06-04T11:23:27;28.60;67.70
23305;DHT22;11821;51.456;8.844;2023-06-04T11:25:58;28.80;67.50
23305;DHT22;11821;51.456;8.844;2023-06-04T11:28:24;28.90;68.20
23305;DHT22;11821;51.456;8.844;2023-06-04T11:31:01;29.00;66.10
23305;DHT22;11821;51.456;8.844;2023-06-04T11:33:47;29.00;65.30
23305;DHT22;11821;51.456;8.844;2023-06-04T11:36:27;29.10;68.30
23305;DHT22;11821;51.456;8.844;2023-06-04T11:39:00;29.00;67.60
23305;DHT22;11821;51.456;8.844;2023-06-04T11:41:31;29.30;68.30
23305;DHT22;11821;51.456;8.844;2023-06-04T11:44:01;29.20;66.90
23305;DHT22;11821;51.456;8.844;2023-06-04T11:46:29;28.60;66.10
23305;DHT22;11821;51.456;8.844;2023-06-04T11:48:56;28.90;65.40
23305;DHT22;11821;51.456;8.844;2023-06-04T11:51:23;29.20;67.20
23305;DHT22;11821;51.456;8.844;2023-06-04T11:53:49;29.40;67.00
23305;DHT22;11821;51.456;8.844;2023-06-04T11:56:18;29.50;67.70
23305;DHT22;11821;51.456;8.844;2023-06-04T11:58:45;29.50;67.80
23305;DHT22;11821;51.456;8.844;2023-06-04T12:01:12;29.30;65.90
23305;DHT22;11821;51.456;8.844;2023-06-04T12:03:41;29.40;67.90
23305;DHT22;11821;51.456;8.844;2023-06-04T12:06:18;28.40;65.30
23305;DHT22;11821;51.456;8.844;2023-06-04T12:08:55;29.00;65.80
23305;DHT22;11821;51.456;8.844;2023-06-04T12:11:34;29.20;66.50
23305;DHT22;11821;51.456;8.844;2023-06-04T12:14:04;29.20;64.40
23305;DHT22;11821;51.456;8.844;2023-06-04T12:16:34;29.20;65.00
23305;DHT22;11821;51.456;8.844;2023-06-04T12:19:12;29.20;63.70
23305;DHT22;11821;51.456;8.844;2023-06-04T12:21:41;29.00;63.50
23305;DHT22;11821;51.456;8.844;2023-06-04T12:24:13;29.60;64.50
23305;DHT22;11821;51.456;8.844;2023-06-04T12:26:41;29.50;66.20
23305;DHT22;11821;51.456;8.844;2023-06-04T12:29:14;29.90;65.60
23305;DHT22;11821;51.456;8.844;2023-06-04T12:31:44;29.70;66.30
23305;DHT22;11821;51.456;8.844;2023-06-04T12:34:18;29.40;65.90
23305;DHT22;11821;51.456;8.844;2023-06-04T12:36:44;29.70;66.10
23305;DHT22;11821;51.456;8.844;2023-06-04T12:39:10;29.70;65.20
23305;DHT22;11821;51.456;8.844;2023-06-04T12:41:37;30.00;65.90
23305;DHT22;11821;51.456;8.844;2023-06-04T12:44:03;30.30;64.00
23305;DHT22;11821;51.456;8.844;2023-06-04T12:46:36;30.30;64.10
23305;DHT22;11821;51.456;8.844;2023-06-04T12:49:04;30.40;62.70
23305;DHT22;11821;51.456;8.844;2023-06-04T12:51:31;30.30;64.00
23305;DHT22;11821;51.456;8.844;2023-06-04T12:53:58;30.20;61.30
23305;DHT22;11821;51.456;8.844;2023-06-04T12:56:25;30.10;65.10
23305;DHT22;11821;51.456;8.844;2023-06-04T12:58:52;30.10;63.70
23305;DHT22;11821;51.456;8.844;2023-06-04T13:01:18;30.30;64.00
23305;DHT22;11821;51.456;8.844;2023-06-04T13:03:45;30.50;62.00
23305;DHT22;11821;51.456;8.844;2023-06-04T13:06:12;30.40;61.70
23305;DHT22;11821;51.456;8.844;2023-06-04T13:08:38;30.20;62.00
23305;DHT22;11821;51.456;8.844;2023-06-04T13:11:05;30.00;63.10
23305;DHT22;11821;51.456;8.844;2023-06-04T13:13:32;30.20;66.10
23305;DHT22;11821;51.456;8.844;2023-06-04T13:15:59;29.70;60.00
23305;DHT22;11821;51.456;8.844;2023-06-04T13:18:26;29.50;63.10
23305;DHT22;11821;51.456;8.844;2023-06-04T13:20:56;29.60;61.40
23305;DHT22;11821;51.456;8.844;2023-06-04T13:23:22;29.90;62.30
23305;DHT22;11821;51.456;8.844;2023-06-04T13:25:49;29.80;60.70
23305;DHT22;11821;51.456;8.844;2023-06-04T13:28:16;29.90;61.80
23305;DHT22;11821;51.456;8.844;2023-06-04T13:30:43;29.80;60.00
23305;DHT22;11821;51.456;8.844;2023-06-04T13:33:10;29.20;59.60
23305;DHT22;11821;51.456;8.844;2023-06-04T13:35:36;28.90;60.00
23305;DHT22;11821;51.456;8.844;2023-06-04T13:38:06;28.30;61.10
23305;DHT22;11821;51.456;8.844;2023-06-04T13:40:36;28.40;62.90
23305;DHT22;11821;51.456;8.844;2023-06-04T13:43:05;29.10;63.30
23305;DHT22;11821;51.456;8.844;2023-06-04T13:45:35;29.20;63.50
23305;DHT22;11821;51.456;8.844;2023-06-04T13:48:02;28.50;64.40
23305;DHT22;11821;51.456;8.844;2023-06-04T13:50:32;28.70;62.50
23305;DHT22;11821;51.456;8.844;2023-06-04T13:52:59;28.40;61.10
23305;DHT22;11821;51.456;8.844;2023-06-04T13:55:26;28.80;63.90
23305;DHT22;11821;51.456;8.844;2023-06-04T13:57:55;29.10;61.30
23305;DHT22;11821;51.456;8.844;2023-06-04T14:00:24;28.90;61.40
23305;DHT22;11821;51.456;8.844;2023-06-04T14:02:51;28.90;62.40
23305;DHT22;11821;51.456;8.844;2023-06-04T14:05:18;28.90;62.30
23305;DHT22;11821;51.456;8.844;2023-06-04T14:07:46;29.10;65.10
23305;DHT22;11821;51.456;8.844;2023-06-04T14:10:13;29.10;59.80
23305;DHT22;11821;51.456;8.844;2023-06-04T14:12:43;29.30;61.20
23305;DHT22;11821;51.456;8.844;2023-06-04T14:15:10;29.60;61.90
23305;DHT22;11821;51.456;8.844;2023-06-04T14:17:38;29.60;64.00
23305;DHT22;11821;51.456;8.844;2023-06-04T14:20:07;29.80;61.70
23305;DHT22;11821;51.456;8.844;2023-06-04T14:22:38;28.90;62.90
23305;DHT22;11821;51.456;8.844;2023-06-04T14:25:05;29.20;64.40
23305;DHT22;11821;51.456;8.844;2023-06-04T14:27:33;28.50;61.30
23305;DHT22;11821;51.456;8.844;2023-06-04T14:30:06;28.40;64.50
23305;DHT22;11821;51.456;8.844;2023-06-04T14:32:33;28.90;64.40
23305;DHT22;11821;51.456;8.844;2023-06-04T14:35:00;28.80;63.00
23305;DHT22;11821;51.456;8.844;2023-06-04T14:37:26;28.20;63.20
23305;DHT22;11821;51.456;8.844;2023-06-04T14:39:53;28.20;63.60
23305;DHT22;11821;51.456;8.844;2023-06-04T14:42:25;28.40;65.40
23305;DHT22;11821;51.456;8.844;2023-06-04T14:44:54;28.30;64.00
23305;DHT22;11821;51.456;8.844;2023-06-04T14:47:21;28.60;63.40
23305;DHT22;11821;51.456;8.844;2023-06-04T14:49:51;28.60;64.50
23305;DHT22;11821;51.456;8.844;2023-06-04T14:52:17;28.90;66.60
23305;DHT22;11821;51.456;8.844;2023-06-04T14:54:43;28.80;64.70
23305;DHT22;11821;51.456;8.844;2023-06-04T14:57:14;28.60;63.20
23305;DHT22;11821;51.456;8.844;2023-06-04T14:59:42;28.00;65.10
23305;DHT22;11821;51.456;8.844;2023-06-04T15:02:09;27.80;65.50
23305;DHT22;11821;51.456;8.844;2023-06-04T15:04:35;28.00;67.90
23305;DHT22;11821;51.456;8.844;2023-06-04T15:07:03;27.70;65.30
23305;DHT22;11821;51.456;8.844;2023-06-04T15:09:29;27.50;66.20
23305;DHT22;11821;51.456;8.844;2023-06-04T15:11:56;27.90;69.00
23305;DHT22;11821;51.456;8.844;2023-06-04T15:14:27;28.00;68.80
23305;DHT22;11821;51.456;8.844;2023-06-04T15:16:54;28.10;65.90
23305;DHT22;11821;51.456;8.844;2023-06-04T15:19:20;28.20;65.20
23305;DHT22;11821;51.456;8.844;2023-06-04T15:21:46;27.90;67.20
23305;DHT22;11821;51.456;8.844;2023-06-04T15:24:16;28.00;66.90
23305;DHT22;11821;51.456;8.844;2023-06-04T15:26:48;27.80;67.20
23305;DHT22;11821;51.456;8.844;2023-06-04T15:29:15;27.60;67.80
23305;DHT22;11821;51.456;8.844;2023-06-04T15:31:41;27.80;68.40
23305;DHT22;11821;51.456;8.844;2023-06-04T15:34:08;28.10;68.90
23305;DHT22;11821;51.456;8.844;2023-06-04T15:36:35;28.30;66.40
23305;DHT22;11821;51.456;8.844;2023-06-04T15:39:04;28.20;66.30
23305;DHT22;11821;51.456;8.844;2023-06-04T15:41:31;27.80;68.20
23305;DHT22;11821;51.456;8.844;2023-06-04T15:44:00;27.80;68.40
23305;DHT22;11821;51.456;8.844;2023-06-04T15:46:27;27.70;68.30
23305;DHT22;11821;51.456;8.844;2023-06-04T15:48:55;27.80;68.00
23305;DHT22;11821;51.456;8.844;2023-06-04T15:51:24;27.80;68.60
23305;DHT22;11821;51.456;8.844;2023-06-04T15:53:54;28.00;67.60
23305;DHT22;11821;51.456;8.844;2023-06-04T15:56:21;27.60;67.10
23305;DHT22;11821;51.456;8.844;2023-06-04T15:58:52;27.60;67.90
23305;DHT22;11821;51.456;8.844;2023-06-04T16:01:18;27.60;67.50
23305;DHT22;11821;51.456;8.844;2023-06-04T16:03:47;27.70;69.70
23305;DHT22;11821;51.456;8.844;2023-06-04T16:06:14;26.80;67.80
23305;DHT22;11821;51.456;8.844;2023-06-04T16:08:43;26.90;69.10
23305;DHT22;11821;51.456;8.844;2023-06-04T16:11:10;26.80;69.80
23305;DHT22;11821;51.456;8.844;2023-06-04T16:13:37;27.20;69.00
23305;DHT22;11821;51.456;8.844;2023-06-04T16:16:04;26.90;67.90
23305;DHT22;11821;51.456;8.844;2023-06-04T16:18:31;27.10;70.40
23305;DHT22;11821;51.456;8.844;2023-06-04T16:21:03;27.20;68.90
23305;DHT22;11821;51.456;8.844;2023-06-04T16:23:32;27.30;69.80
23305;DHT22;11821;51.456;8.844;2023-06-04T16:25:59;27.40;69.70
23305;DHT22;11821;51.456;8.844;2023-06-04T16:28:25;27.30;70.10
23305;DHT22;11821;51.456;8.844;2023-06-04T16:30:51;27.10;69.00
23305;DHT22;11821;51.456;8.844;2023-06-04T16:33:18;27.10;68.60
23305;DHT22;11821;51.456;8.844;2023-06-04T16:35:44;26.90;69.00
23305;DHT22;11821;51.456;8.844;2023-06-04T16:40:40;26.70;69.10
23305;DHT22;11821;51.456;8.844;2023-06-04T16:43:06;26.40;70.90
23305;DHT22;11821;51.456;8.844;2023-06-04T16:45:33;26.20;70.70
23305;DHT22;11821;51.456;8.844;2023-06-04T16:48:00;26.20;70.50
23305;DHT22;11821;51.456;8.844;2023-06-04T16:50:29;26.30;70.40
23305;DHT22;11821;51.456;8.844;2023-06-04T16:52:55;26.20;70.10
23305;DHT22;11821;51.456;8.844;2023-06-04T16:55:34;26.20;71.30
23305;DHT22;11821;51.456;8.844;2023-06-04T16:58:12;26.20;71.30
23305;DHT22;11821;51.456;8.844;2023-06-04T17:00:42;26.10;71.70
23305;DHT22;11821;51.456;8.844;2023-06-04T17:03:09;26.10;72.30
23305;DHT22;11821;51.456;8.844;2023-06-04T17:05:36;25.90;71.10
23305;DHT22;11821;51.456;8.844;2023-06-04T17:08:08;25.80;71.40
23305;DHT22;11821;51.456;8.844;2023-06-04T17:10:38;25.80;71.70
23305;DHT22;11821;51.456;8.844;2023-06-04T17:13:05;25.80;71.80
23305;DHT22;11821;51.456;8.844;2023-06-04T17:15:32;25.70;72.50
23305;DHT22;11821;51.456;8.844;2023-06-04T17:17:59;25.50;72.60
23305;DHT22;11821;51.456;8.844;2023-06-04T17:20:36;25.70;72.80
23305;DHT22;11821;51.456;8.844;2023-06-04T17:23:23;25.50;73.00
23305;DHT22;11821;51.456;8.844;2023-06-04T17:25:50;25.50;71.70
23305;DHT22;11821;51.456;8.844;2023-06-04T17:28:17;25.50;73.20
23305;DHT22;11821;51.456;8.844;2023-06-04T17:30:43;25.40;71.50
23305;DHT22;11821;51.456;8.844;2023-06-04T17:33:13;25.60;73.40
23305;DHT22;11821;51.456;8.844;2023-06-04T17:35:41;25.60;73.20
23305;DHT22;11821;51.456;8.844;2023-06-04T17:38:11;25.50;73.90
23305;DHT22;11821;51.456;8.844;2023-06-04T17:40:38;25.40;73.30
23305;DHT22;11821;51.456;8.844;2023-06-04T17:43:04;25.20;73.30
23305;DHT22;11821;51.456;8.844;2023-06-04T17:45:31;25.00;74.40
23305;DHT22;11821;51.456;8.844;2023-06-04T17:47:58;25.00;74.90
23305;DHT22;11821;51.456;8.844;2023-06-04T17:50:24;24.90;75.20
23305;DHT22;11821;51.456;8.844;2023-06-04T17:52:51;24.70;74.60
23305;DHT22;11821;51.456;8.844;2023-06-04T17:55:17;24.70;76.00
23305;DHT22;11821;51.456;8.844;2023-06-04T17:57:44;24.60;75.30
23305;DHT22;11821;51.456;8.844;2023-06-04T18:00:19;24.60;75.40
23305;DHT22;11821;51.456;8.844;2023-06-04T18:02:48;24.50;75.80
23305;DHT22;11821;51.456;8.844;2023-06-04T18:05:14;24.50;76.30
23305;DHT22;11821;51.456;8.844;2023-06-04T18:07:41;24.40;77.10
23305;DHT22;11821;51.456;8.844;2023-06-04T18:10:08;24.30;77.10
23305;DHT22;11821;51.456;8.844;2023-06-04T18:12:35;24.20;79.00
23305;DHT22;11821;51.456;8.844;2023-06-04T18:15:02;24.20;77.30
23305;DHT22;11821;51.456;8.844;2023-06-04T18:17:29;24.10;78.10
23305;DHT22;11821;51.456;8.844;2023-06-04T18:19:59;24.00;76.90
23305;DHT22;11821;51.456;8.844;2023-06-04T18:22:25;23.90;78.30
23305;DHT22;11821;51.456;8.844;2023-06-04T18:24:52;23.90;77.80
23305;DHT22;11821;51.456;8.844;2023-06-04T18:27:19;23.90;78.40
23305;DHT22;11821;51.456;8.844;2023-06-04T18:29:46;23.80;78.80
23305;DHT22;11821;51.456;8.844;2023-06-04T18:32:15;23.80;79.00
23305;DHT22;11821;51.456;8.844;2023-06-04T18:34:42;23.70;78.70
23305;DHT22;11821;51.456;8.844;2023-06-04T18:37:18;23.60;78.20
23305;DHT22;11821;51.456;8.844;2023-06-04T18:39:44;23.50;79.60
23305;DHT22;11821;51.456;8.844;2023-06-04T18:42:10;23.40;79.60
23305;DHT22;11821;51.456;8.844;2023-06-04T18:44:37;23.40;80.50
23305;DHT22;11821;51.456;8.844;2023-06-04T18:47:07;23.30;80.10
23305;DHT22;11821;51.456;8.844;2023-06-04T18:49:34;23.20;80.40
23305;DHT22;11821;51.456;8.844;2023-06-04T18:52:01;23.10;80.50
23305;DHT22;11821;51.456;8.844;2023-06-04T18:54:30;23.10;79.80
23305;DHT22;11821;51.456;8.844;2023-06-04T18:56:59;23.00;79.70
23305;DHT22;11821;51.456;8.844;2023-06-04T18:59:25;23.00;81.50
23305;DHT22;11821;51.456;8.844;2023-06-04T19:01:52;23.00;82.60
23305;DHT22;11821;51.456;8.844;2023-06-04T19:04:19;23.00;80.90
23305;DHT22;11821;51.456;8.844;2023-06-04T19:06:45;23.00;82.30
23305;DHT22;11821;51.456;8.844;2023-06-04T19:09:11;22.80;80.80
23305;DHT22;11821;51.456;8.844;2023-06-04T19:11:38;22.70;81.20
23305;DHT22;11821;51.456;8.844;2023-06-04T19:14:09;22.60;82.00
23305;DHT22;11821;51.456;8.844;2023-06-04T19:16:36;22.60;83.40
23305;DHT22;11821;51.456;8.844;2023-06-04T19:19:02;22.50;82.70
23305;DHT22;11821;51.456;8.844;2023-06-04T19:21:34;22.50;82.90
23305;DHT22;11821;51.456;8.844;2023-06-04T19:24:06;22.40;82.80
23305;DHT22;11821;51.456;8.844;2023-06-04T19:26:34;22.30;82.70
23305;DHT22;11821;51.456;8.844;2023-06-04T19:29:00;22.20;83.60
23305;DHT22;11821;51.456;8.844;2023-06-04T19:31:30;22.10;84.10
23305;DHT22;11821;51.456;8.844;2023-06-04T19:34:00;22.10;85.10
23305;DHT22;11821;51.456;8.844;2023-06-04T19:36:27;22.00;85.00
23305;DHT22;11821;51.456;8.844;2023-06-04T19:38:56;21.80;84.80
23305;DHT22;11821;51.456;8.844;2023-06-04T19:41:26;21.70;85.70
23305;DHT22;11821;51.456;8.844;2023-06-04T19:43:52;21.60;86.20
23305;DHT22;11821;51.456;8.844;2023-06-04T19:46:19;21.50;88.30
23305;DHT22;11821;51.456;8.844;2023-06-04T19:48:45;21.40;89.20
23305;DHT22;11821;51.456;8.844;2023-06-04T19:51:12;21.20;90.10
23305;DHT22;11821;51.456;8.844;2023-06-04T19:53:41;21.00;90.80
23305;DHT22;11821;51.456;8.844;2023-06-04T19:56:14;20.80;91.00
23305;DHT22;11821;51.456;8.844;2023-06-04T19:58:40;20.60;91.10
23305;DHT22;11821;51.456;8.844;2023-06-04T20:01:10;20.50;91.20
23305;DHT22;11821;51.456;8.844;2023-06-04T20:03:39;20.50;92.20
23305;DHT22;11821;51.456;8.844;2023-06-04T20:06:07;20.20;91.90
23305;DHT22;11821;51.456;8.844;2023-06-04T20:08:40;20.20;92.60
23305;DHT22;11821;51.456;8.844;2023-06-04T20:11:11;20.00;92.10
23305;DHT22;11821;51.456;8.844;2023-06-04T20:13:38;20.00;92.90
23305;DHT22;11821;51.456;8.844;2023-06-04T20:16:09;19.80;93.60
23305;DHT22;11821;51.456;8.844;2023-06-04T20:18:36;19.70;93.50
23305;DHT22;11821;51.456;8.844;2023-06-04T20:21:02;19.70;93.20
23305;DHT22;11821;51.456;8.844;2023-06-04T20:23:32;19.50;92.60
23305;DHT22;11821;51.456;8.844;2023-06-04T20:28:28;19.40;94.60
23305;DHT22;11821;51.456;8.844;2023-06-04T20:31:00;19.30;94.10
23305;DHT22;11821;51.456;8.844;2023-06-04T20:33:26;19.20;94.20
23305;DHT22;11821;51.456;8.844;2023-06-04T20:35:52;19.10;94.50
23305;DHT22;11821;51.456;8.844;2023-06-04T20:38:19;19.00;94.70
23305;DHT22;11821;51.456;8.844;2023-06-04T20:40:51;18.90;94.70
23305;DHT22;11821;51.456;8.844;2023-06-04T20:43:19;18.80;95.50
23305;DHT22;11821;51.456;8.844;2023-06-04T20:45:49;18.70;95.60
23305;DHT22;11821;51.456;8.844;2023-06-04T20:48:24;18.70;95.40
23305;DHT22;11821;51.456;8.844;2023-06-04T20:50:51;18.50;95.60
23305;DHT22;11821;51.456;8.844;2023-06-04T20:53:18;18.50;95.70
23305;DHT22;11821;51.456;8.844;2023-06-04T20:55:44;18.40;95.70
23305;DHT22;11821;51.456;8.844;2023-06-04T20:58:14;18.30;95.70
23305;DHT22;11821;51.456;8.844;2023-06-04T21:00:45;18.20;96.00
23305;DHT22;11821;51.456;8.844;2023-06-04T21:03:11;18.10;95.80
23305;DHT22;11821;51.456;8.844;2023-06-04T21:05:38;18.00;95.50
23305;DHT22;11821;51.456;8.844;2023-06-04T21:08:05;17.90;96.10
23305;DHT22;11821;51.456;8.844;2023-06-04T21:10:31;17.80;96.40
23305;DHT22;11821;51.456;8.844;2023-06-04T21:13:01;17.70;96.50
23305;DHT22;11821;51.456;8.844;2023-06-04T21:15:27;17.60;96.50
23305;DHT22;11821;51.456;8.844;2023-06-04T21:17:54;17.60;96.80
23305;DHT22;11821;51.456;8.844;2023-06-04T21:20:21;17.50;96.90
23305;DHT22;11821;51.456;8.844;2023-06-04T21:22:48;17.40;97.50
23305;DHT22;11821;51.456;8.844;2023-06-04T21:25:14;17.30;97.00
23305;DHT22;11821;51.456;8.844;2023-06-04T21:27:46;17.20;97.40
23305;DHT22;11821;51.456;8.844;2023-06-04T21:30:13;17.20;97.20
23305;DHT22;11821;51.456;8.844;2023-06-04T21:32:44;17.10;97.30
23305;DHT22;11821;51.456;8.844;2023-06-04T21:35:14;17.00;97.50
23305;DHT22;11821;51.456;8.844;2023-06-04T21:37:43;16.90;97.50
23305;DHT22;11821;51.456;8.844;2023-06-04T21:40:12;16.90;97.00
23305;DHT22;11821;51.456;8.844;2023-06-04T21:42:41;16.80;97.10
23305;DHT22;11821;51.456;8.844;2023-06-04T21:45:08;16.70;97.40
23305;DHT22;11821;51.456;8.844;2023-06-04T21:47:38;16.60;97.70
23305;DHT22;11821;51.456;8.844;2023-06-04T21:50:04;16.60;97.80
23305;DHT22;11821;51.456;8.844;2023-06-04T21:52:31;16.40;98.10
23305;DHT22;11821;51.456;8.844;2023-06-04T21:55:03;16.40;99.10
23305;DHT22;11821;51.456;8.844;2023-06-04T21:57:30;16.30;98.90
23305;DHT22;11821;51.456;8.844;2023-06-04T21:59:56;16.20;99.50
23305;DHT22;11821;51.456;8.844;2023-06-04T22:02:23;16.10;99.00
23305;DHT22;11821;51.456;8.844;2023-06-04T22:04:52;16.10;99.40
23305;DHT22;11821;51.456;8.844;2023-06-04T22:07:18;16.00;99.90
23305;DHT22;11821;51.456;8.844;2023-06-04T22:09:48;15.90;99.90
23305;DHT22;11821;51.456;8.844;2023-06-04T22:12:16;15.80;99.50
23305;DHT22;11821;51.456;8.844;2023-06-04T22:29:24;15.80;99.80
23305;DHT22;11821;51.456;8.844;2023-06-04T22:31:52;15.40;99.90
23305;DHT22;11821;51.456;8.844;2023-06-04T22:41:44;15.40;99.90
23305;DHT22;11821;51.456;8.844;2023-06-04T22:51:36;15.10;99.90
23305;DHT22;11821;51.456;8.844;2023-06-04T22:54:06;14.90;99.90
23305;DHT22;11821;51.456;8.844;2023-06-04T22:56:32;14.80;99.90
23305;DHT22;11821;51.456;8.844;2023-06-04T23:03:58;14.80;99.90
23305;DHT22;11821;51.456;8.844;2023-06-04T23:11:17;14.50;99.90
23305;DHT22;11821;51.456;8.844;2023-06-04T23:13:45;14.40;99.90
23305;DHT22;11821;51.456;8.844;2023-06-04T23:16:12;14.40;99.90
23305;DHT22;11821;51.456;8.844;2023-06-04T23:18:40;14.30;99.90
23305;DHT22;11821;51.456;8.844;2023-06-04T23:21:06;14.30;99.90
23305;DHT22;11821;51.456;8.844;2023-06-04T23:33:22;14.20;99.90
23305;DHT22;11821;51.456;8.844;2023-06-04T23:35:48;14.20;99.90
